createdAt,value
2018-12-29T00:03:51.767Z,70.07
2018-12-29T00:07:58.708Z,82.10
2018-12-29T00:12:24.510Z,78.07
2018-12-29T00:21:02.699Z,72.40
2018-12-29T00:29:35.626Z,65.17
2018-12-29T00:33:42.611Z,76.90
2018-12-29T00:37:49.678Z,77.23
2018-12-29T00:41:56.667Z,78.37
2018-12-29T00:50:29.519Z,70.57
2018-12-29T00:59:08.895Z,75.30
2018-12-29T01:03:19.805Z,81.43
2018-12-29T01:07:26.752Z,70.50
2018-12-29T01:11:33.788Z,69.87
2018-12-29T01:15:40.767Z,72.03
2018-12-29T01:19:47.710Z,67.80
2018-12-29T01:23:54.777Z,64.07
2018-12-29T01:28:01.752Z,68.70
2018-12-29T01:32:08.802Z,60.43
2018-12-29T01:36:15.977Z,69.60
2018-12-29T01:40:23.019Z,59.00
2018-12-29T01:44:30.066Z,64.40
2018-12-29T01:48:37.000Z,65.00
2018-12-29T01:52:44.147Z,62.63
2018-12-29T01:56:51.144Z,61.67
2018-12-29T02:00:58.110Z,60.93
2018-12-29T02:05:26.121Z,58.17
2018-12-29T02:09:33.037Z,60.83
2018-12-29T02:13:40.123Z,56.83
2018-12-29T02:17:46.991Z,56.90
2018-12-29T02:21:53.902Z,60.70
2018-12-29T02:26:01.784Z,49.97
2018-12-29T02:30:09.698Z,57.57
2018-12-29T02:34:16.760Z,56.10
2018-12-29T02:38:25.870Z,55.83
2018-12-29T02:42:32.885Z,58.40
2018-12-29T02:46:39.807Z,58.60
2018-12-29T02:50:46.798Z,58.77
2018-12-29T02:59:25.124Z,53.73
2018-12-29T03:03:32.242Z,55.33
2018-12-29T03:07:39.245Z,52.50
2018-12-29T03:11:46.148Z,54.90
2018-12-29T03:15:53.120Z,55.33
2018-12-29T03:20:00.172Z,54.10
2018-12-29T03:28:40.387Z,58.37
2018-12-29T03:32:47.272Z,58.17
2018-12-29T03:36:54.225Z,54.80
2018-12-29T03:41:40.637Z,54.90
2018-12-29T03:45:49.299Z,51.40
2018-12-29T03:50:02.615Z,51.33
2018-12-29T03:54:09.623Z,57.13
2018-12-29T03:58:16.568Z,53.50
2018-12-29T04:02:25.786Z,55.23
2018-12-29T04:06:33.532Z,56.60
2018-12-29T04:10:40.451Z,50.50
2018-12-29T04:14:47.424Z,50.37
2018-12-29T04:18:54.413Z,47.50
2018-12-29T04:23:01.478Z,50.33
2018-12-29T04:31:34.427Z,48.57
2018-12-29T04:36:00.738Z,54.83
2018-12-29T04:40:09.341Z,49.10
2018-12-29T04:44:16.303Z,48.90
2018-12-29T04:48:23.523Z,50.73
2018-12-29T04:52:30.372Z,53.33
2018-12-29T05:05:34.314Z,55.13
2018-12-29T05:09:42.221Z,58.47
2018-12-29T05:13:49.283Z,66.07
2018-12-29T05:17:56.344Z,60.70
2018-12-29T05:22:06.644Z,66.10
2018-12-29T05:26:13.601Z,62.70
2018-12-29T05:30:20.683Z,72.47
2018-12-29T05:34:27.665Z,69.27
2018-12-29T05:38:34.701Z,68.00
2018-12-29T05:47:07.665Z,65.97
2018-12-29T05:51:14.967Z,68.77
2018-12-29T05:55:24.144Z,70.80
2018-12-29T06:04:02.587Z,76.60
2018-12-29T06:08:09.790Z,67.77
2018-12-29T06:16:36.124Z,72.00
2018-12-29T06:20:43.263Z,69.00
2018-12-29T06:24:50.338Z,62.93
2018-12-29T06:28:57.384Z,63.43
2018-12-29T06:33:04.272Z,68.30
2018-12-29T06:37:11.294Z,67.40
2018-12-29T06:41:18.195Z,61.50
2018-12-29T06:45:25.291Z,60.97
2018-12-29T06:49:32.705Z,61.07
2018-12-29T06:53:39.729Z,58.73
2018-12-29T06:57:47.291Z,55.70
2018-12-29T07:02:14.709Z,57.40
2018-12-29T07:06:21.601Z,52.50
2018-12-29T07:10:28.594Z,60.27
2018-12-29T07:14:35.604Z,55.33
2018-12-29T07:18:42.695Z,63.67
2018-12-29T07:22:50.514Z,55.90
2018-12-29T07:26:57.388Z,53.90
2018-12-29T07:31:06.540Z,56.30
2018-12-29T07:35:13.491Z,62.83
2018-12-29T07:39:20.481Z,52.90
2018-12-29T07:43:27.402Z,59.77
2018-12-29T07:47:34.297Z,59.23
2018-12-29T07:51:41.215Z,62.53
2018-12-29T07:55:48.236Z,62.27
2018-12-29T07:59:55.124Z,54.10
2018-12-29T08:08:48.558Z,57.90
2018-12-29T08:12:55.651Z,61.40
2018-12-29T08:17:02.747Z,64.30
2018-12-29T08:21:09.800Z,58.30
2018-12-29T08:25:16.942Z,57.83
2018-12-29T08:29:23.837Z,62.73
2018-12-29T08:33:30.860Z,65.87
2018-12-29T08:37:37.866Z,61.37
2018-12-29T08:41:44.904Z,63.17
2018-12-29T08:45:52.001Z,62.67
2018-12-29T08:49:58.891Z,60.83
2018-12-29T08:54:05.784Z,65.27
2018-12-29T08:58:12.846Z,63.43
2018-12-29T09:02:19.819Z,69.00
2018-12-29T09:06:26.742Z,63.73
2018-12-29T09:10:56.257Z,58.93
2018-12-29T09:15:04.195Z,62.20
2018-12-29T09:23:34.206Z,59.23
2018-12-29T09:27:41.216Z,65.83
2018-12-29T09:31:50.307Z,65.33
2018-12-29T09:40:34.660Z,63.87
2018-12-29T09:44:41.800Z,59.83
2018-12-29T09:48:48.998Z,64.67
2018-12-29T09:52:56.268Z,60.30
2018-12-29T09:57:03.315Z,61.83
2018-12-29T10:06:19.651Z,58.47
2018-12-29T10:10:26.790Z,64.30
2018-12-29T10:14:33.775Z,60.53
2018-12-29T10:18:40.980Z,60.97
2018-12-29T10:22:48.848Z,54.03
2018-12-29T10:26:56.090Z,56.10
2018-12-29T10:31:03.293Z,55.33
2018-12-29T10:35:10.310Z,60.40
2018-12-29T10:39:20.150Z,63.60
2018-12-29T10:43:46.684Z,61.97
2018-12-29T10:47:53.796Z,59.23
2018-12-29T10:52:00.998Z,60.87
2018-12-29T11:00:39.358Z,62.70
2018-12-29T11:04:46.286Z,60.80
2018-12-29T11:08:53.246Z,62.10
2018-12-29T11:13:00.448Z,55.53
2018-12-29T11:17:07.745Z,62.07
2018-12-29T11:21:14.903Z,59.03
2018-12-29T11:30:03.702Z,61.50
2018-12-29T11:34:10.897Z,57.53
2018-12-29T11:38:18.118Z,56.50
2018-12-29T11:42:25.184Z,54.37
2018-12-29T11:46:32.168Z,58.33
2018-12-29T11:50:40.903Z,55.57
2018-12-29T11:55:27.484Z,59.13
2018-12-29T11:59:55.933Z,57.17
2018-12-29T12:04:03.136Z,58.00
2018-12-29T12:08:10.471Z,60.70
2018-12-29T12:12:17.383Z,57.60
2018-12-29T12:16:25.947Z,57.77
2018-12-29T12:24:56.056Z,55.00
2018-12-29T12:29:03.246Z,56.37
2018-12-29T12:33:50.073Z,55.77
2018-12-29T12:37:57.121Z,54.27
2018-12-29T12:42:05.672Z,56.47
2018-12-29T12:46:12.655Z,57.20
2018-12-29T12:50:19.601Z,49.13
2018-12-29T12:54:26.774Z,51.53
2018-12-29T12:58:33.790Z,50.37
2018-12-29T13:07:21.388Z,51.13
2018-12-29T13:11:28.623Z,53.17
2018-12-29T13:15:35.941Z,54.50
2018-12-29T13:24:14.863Z,56.63
2018-12-29T13:28:22.225Z,56.80
2018-12-29T13:36:55.697Z,54.27
2018-12-29T13:41:34.877Z,232.07
2018-12-29T13:45:42.392Z,50.30
2018-12-29T13:49:49.388Z,54.63
2018-12-29T13:58:41.663Z,65.60
2018-12-29T14:02:48.866Z,55.03
2018-12-29T14:06:56.415Z,56.53
2018-12-29T14:11:03.569Z,50.80
2018-12-29T14:15:11.062Z,52.73
2018-12-29T14:19:18.266Z,56.13
2018-12-29T14:23:25.969Z,55.73
2018-12-29T14:27:33.156Z,56.30
2018-12-29T14:31:40.217Z,56.90
2018-12-29T14:35:48.535Z,54.50
2018-12-29T14:39:55.975Z,58.37
2018-12-29T14:44:23.566Z,54.93
2018-12-29T14:48:35.987Z,55.53
2018-12-29T14:52:48.830Z,55.63
2018-12-29T14:56:56.210Z,64.97
2018-12-29T15:01:04.835Z,57.07
2018-12-29T15:05:13.515Z,60.43
2018-12-29T15:09:25.284Z,62.93
2018-12-29T15:13:36.612Z,59.70
2018-12-29T15:17:55.520Z,56.87
2018-12-29T15:22:02.986Z,58.37
2018-12-29T15:26:12.640Z,58.80
2018-12-29T15:30:20.685Z,57.50
2018-12-29T15:37:17.393Z,56.97
2018-12-29T15:41:24.950Z,59.13
2018-12-29T15:45:32.518Z,54.97
2018-12-29T15:49:39.624Z,60.97
2018-12-29T15:53:46.989Z,61.00
2018-12-29T15:57:54.939Z,55.73
2018-12-29T16:02:02.326Z,60.97
2018-12-29T16:06:11.386Z,59.07
2018-12-29T16:10:18.474Z,55.47
2018-12-29T16:14:25.581Z,55.07
2018-12-29T16:18:33.804Z,54.67
2018-12-29T16:22:51.503Z,60.03
2018-12-29T16:26:58.590Z,58.53
2018-12-29T16:31:05.925Z,52.87
2018-12-29T16:35:13.378Z,54.47
2018-12-29T16:39:20.726Z,53.97
2018-12-29T16:43:27.771Z,51.80
2018-12-29T16:47:34.850Z,59.57
2018-12-29T16:51:42.447Z,56.40
2018-12-29T16:55:52.739Z,62.27
2018-12-29T17:00:07.000Z,53.13
2018-12-29T17:04:15.215Z,52.07
2018-12-29T17:08:22.648Z,55.07
2018-12-29T17:12:30.135Z,54.57
2018-12-29T17:16:37.419Z,55.87
2018-12-29T17:20:44.713Z,49.53
2018-12-29T17:24:51.770Z,51.83
2018-12-29T17:28:58.776Z,57.77
2018-12-29T17:33:05.872Z,52.90
2018-12-29T17:37:15.145Z,51.03
2018-12-29T17:41:22.647Z,53.33
2018-12-29T17:45:39.644Z,53.33
2018-12-29T17:49:46.883Z,50.40
2018-12-29T17:53:54.100Z,51.50
2018-12-29T17:58:09.351Z,53.20
2018-12-29T18:02:16.307Z,53.07
2018-12-29T18:06:23.465Z,49.00
2018-12-29T18:10:30.835Z,55.13
2018-12-29T18:14:39.026Z,54.40
2018-12-29T18:18:46.167Z,49.53
2018-12-29T18:22:53.266Z,51.33
2018-12-29T18:27:00.765Z,46.40
2018-12-29T18:31:08.237Z,49.90
2018-12-29T18:35:15.821Z,52.57
2018-12-29T18:39:23.755Z,44.87
2018-12-29T18:43:31.654Z,44.73
2018-12-29T18:47:39.017Z,46.83
2018-12-29T18:51:46.227Z,45.37
2018-12-29T18:55:53.395Z,40.00
2018-12-29T19:00:00.808Z,45.47
2018-12-29T19:04:08.030Z,42.17
2018-12-29T19:08:15.353Z,39.60
2018-12-29T19:12:22.363Z,46.03
2018-12-29T19:16:30.194Z,42.87
2018-12-29T19:20:38.542Z,41.20
2018-12-29T19:24:46.441Z,41.87
2018-12-29T19:28:53.748Z,40.80
2018-12-29T19:33:00.984Z,47.53
2018-12-29T19:37:08.134Z,46.40
2018-12-29T19:41:16.114Z,48.83
2018-12-29T19:45:23.667Z,47.20
2018-12-29T19:49:31.477Z,47.03
2018-12-29T19:53:38.673Z,44.17
2018-12-29T19:57:46.406Z,43.40
2018-12-29T20:01:53.536Z,44.87
2018-12-29T20:06:01.064Z,41.63
2018-12-29T20:10:12.020Z,43.10
2018-12-29T20:14:21.582Z,42.77
2018-12-29T20:18:28.794Z,41.60
2018-12-29T20:22:36.368Z,36.70
2018-12-29T20:26:45.638Z,40.40
2018-12-29T20:30:52.976Z,40.80
2018-12-29T20:35:02.289Z,36.90
2018-12-29T20:39:09.705Z,39.67
2018-12-29T20:43:17.342Z,40.40
2018-12-29T20:47:24.801Z,36.37
2018-12-29T20:51:31.917Z,35.70
2018-12-29T20:55:39.527Z,33.37
2018-12-29T20:59:47.288Z,35.93
2018-12-29T21:03:55.020Z,36.17
2018-12-29T21:08:02.233Z,34.47
2018-12-29T21:12:09.544Z,33.43
2018-12-29T21:16:17.060Z,30.97
2018-12-29T21:20:24.174Z,32.47
2018-12-29T21:24:32.396Z,30.90
2018-12-29T21:28:47.714Z,30.90
2018-12-29T21:33:15.382Z,33.17
2018-12-29T21:37:22.802Z,29.23
2018-12-29T21:41:31.944Z,29.47
2018-12-29T21:45:39.448Z,26.13
2018-12-29T21:49:50.021Z,26.40
2018-12-29T21:54:00.660Z,24.57
2018-12-29T21:58:09.792Z,21.37
2018-12-29T22:02:16.861Z,16.63
2018-12-29T22:06:24.005Z,17.40
2018-12-29T22:10:31.334Z,18.50
2018-12-29T22:14:39.261Z,15.17
2018-12-29T22:18:46.394Z,13.60
2018-12-29T22:22:53.968Z,17.00
2018-12-29T22:27:00.995Z,19.40
2018-12-29T22:31:08.143Z,12.97
2018-12-29T22:35:23.805Z,12.90
2018-12-29T22:39:31.578Z,12.00
2018-12-29T22:43:45.156Z,11.97
2018-12-29T22:47:52.488Z,11.40
2018-12-29T22:51:59.463Z,11.27
2018-12-29T22:56:06.582Z,11.83
2018-12-29T23:00:34.185Z,10.63
2018-12-29T23:04:43.290Z,10.63
2018-12-29T23:08:51.056Z,10.43
2018-12-29T23:12:58.452Z,11.80
2018-12-29T23:17:05.552Z,11.43
2018-12-29T23:21:12.515Z,10.33
2018-12-29T23:25:19.682Z,12.67
2018-12-29T23:29:27.827Z,10.60
2018-12-29T23:33:35.232Z,11.23
2018-12-29T23:37:42.468Z,11.57
2018-12-29T23:41:51.869Z,11.00
2018-12-29T23:45:59.056Z,11.63
2018-12-29T23:50:07.613Z,11.20
2018-12-29T23:54:15.945Z,10.57
2018-12-29T23:58:24.345Z,12.63
